Time;durP1;ratioP1;P1;durP2;ratioP2;P2;SDS_P1;SDS_P2;PMS_P1;PMS_P2;Temp;Humidity;BMP_temperature;BMP_pressure;BME280_temperature;BME280_humidity;BME280_pressure;Samples;Min_cycle;Max_cycle;Signal;HPM_P1;HPM_P2
2023/01/06 00:01:30;;;;;;;1.27;0.80;;;;;;;10.63;100.00;98716.72;5036229;28;20229;-72
2023/01/06 00:03:58;;;;;;;1.10;0.87;;;;;;;10.57;100.00;98712.22;5036162;28;20285;-72
2023/01/06 00:06:27;;;;;;;1.03;0.70;;;;;;;10.94;100.00;98702.81;5035875;28;20252;-71
2023/01/06 00:08:57;;;;;;;0.83;0.77;;;;;;;10.89;100.00;98703.44;5036103;28;20264;-72
2023/01/06 00:11:25;;;;;;;0.70;0.70;;;;;;;10.82;100.00;98704.47;5035763;28;20716;-72
2023/01/06 00:13:51;;;;;;;0.57;0.57;;;;;;;10.75;100.00;98704.47;5035963;28;20226;-72
2023/01/06 00:16:20;;;;;;;1.23;0.70;;;;;;;10.69;100.00;98707.13;5035981;28;20209;-72
2023/01/06 00:18:47;;;;;;;0.67;0.60;;;;;;;10.57;100.00;98704.25;5035899;28;20256;-72
2023/01/06 00:21:15;;;;;;;1.73;0.80;;;;;;;10.61;100.00;98700.16;5035689;28;20241;-72
2023/01/06 00:23:41;;;;;;;0.90;0.90;;;;;;;10.54;100.00;98704.63;5035812;28;20217;-72
2023/01/06 00:26:09;;;;;;;1.07;0.67;;;;;;;10.65;100.00;98697.91;5035732;28;20205;-72
2023/01/06 00:28:36;;;;;;;0.60;0.60;;;;;;;10.69;100.00;98705.25;5035726;28;20211;-72
2023/01/06 00:31:10;;;;;;;0.60;0.60;;;;;;;10.50;100.00;98697.28;5035581;28;20222;-72
2023/01/06 00:33:37;;;;;;;1.13;0.80;;;;;;;10.43;100.00;98696.44;5035241;28;20572;-72
2023/01/06 00:36:04;;;;;;;0.70;0.70;;;;;;;10.41;100.00;98687.88;5035532;28;20228;-72
2023/01/06 00:38:30;;;;;;;0.93;0.70;;;;;;;10.26;100.00;98685.38;5035541;28;20267;-72
2023/01/06 00:40:57;;;;;;;1.07;0.60;;;;;;;10.20;100.00;98690.69;5035399;28;20301;-72
2023/01/06 00:43:23;;;;;;;0.77;0.70;;;;;;;10.16;100.00;98684.94;5035537;28;20199;-72
2023/01/06 00:45:50;;;;;;;0.60;0.60;;;;;;;10.07;100.00;98686.16;5035358;28;20209;-72
2023/01/06 00:48:16;;;;;;;1.40;0.67;;;;;;;10.03;100.00;98678.75;5034602;28;20205;-72
2023/01/06 00:50:42;;;;;;;0.50;0.50;;;;;;;9.97;100.00;98674.25;5034944;28;20673;-72
2023/01/06 00:53:09;;;;;;;1.27;0.70;;;;;;;10.02;100.00;98672.63;5034936;28;20712;-72
2023/01/06 00:55:35;;;;;;;1.03;0.63;;;;;;;10.33;100.00;98666.78;5034963;28;20220;-72
2023/01/06 00:58:01;;;;;;;0.70;0.70;;;;;;;10.28;100.00;98672.69;5034914;28;20214;-72
2023/01/06 01:00:28;;;;;;;1.23;0.83;;;;;;;10.19;100.00;98675.75;5034852;28;20216;-72
2023/01/06 01:02:54;;;;;;;1.60;0.63;;;;;;;10.22;100.00;98678.00;5034726;28;20727;-72
2023/01/06 01:05:20;;;;;;;1.50;0.80;;;;;;;10.21;100.00;98677.19;5035061;28;20213;-72
2023/01/06 01:07:47;;;;;;;2.23;1.13;;;;;;;10.28;100.00;98678.00;5034969;28;20221;-72
2023/01/06 01:10:13;;;;;;;0.73;0.73;;;;;;;10.26;100.00;98676.56;5034580;28;20773;-72
2023/01/06 01:12:40;;;;;;;1.00;0.77;;;;;;;10.34;100.00;98676.38;5034633;28;20230;-72
2023/01/06 01:15:07;;;;;;;3.30;1.00;;;;;;;10.37;100.00;98670.69;5034500;28;20617;-72
2023/01/06 01:17:33;;;;;;;0.80;0.77;;;;;;;10.38;100.00;98669.66;5034843;28;20237;-72
2023/01/06 01:20:00;;;;;;;1.13;0.90;;;;;;;10.39;100.00;98668.63;5034695;28;20205;-72
2023/01/06 01:22:28;;;;;;;1.30;0.80;;;;;;;10.36;100.00;98671.72;5034321;28;20248;-72
2023/01/06 01:24:55;;;;;;;1.67;0.90;;;;;;;10.31;100.00;98674.13;5034571;28;20202;-72
2023/01/06 01:27:21;;;;;;;0.77;0.70;;;;;;;10.25;100.00;98675.78;5034249;28;20212;-72
2023/01/06 01:29:47;;;;;;;0.93;0.63;;;;;;;10.17;100.00;98680.44;5034145;28;20213;-72
2023/01/06 01:32:14;;;;;;;1.23;1.00;;;;;;;10.22;100.00;98670.03;5034024;28;20738;-72
2023/01/06 01:34:40;;;;;;;0.97;0.90;;;;;;;10.23;100.00;98669.03;5033966;28;20222;-72
2023/01/06 01:37:06;;;;;;;0.90;0.90;;;;;;;10.29;100.00;98663.72;5034327;28;20210;-72
2023/01/06 01:39:33;;;;;;;1.03;0.90;;;;;;;10.37;100.00;98670.69;5034306;28;20206;-72
2023/01/06 01:42:00;;;;;;;1.00;0.90;;;;;;;10.34;100.00;98665.75;5033942;28;20735;-72
2023/01/06 01:44:54;;;;;;;0.80;0.80;;;;;;;10.29;100.00;98658.41;5034281;28;20288;-72
2023/01/06 01:47:30;;;;;;;0.97;0.90;;;;;;;10.28;100.00;98661.25;5034219;28;20209;-72
2023/01/06 01:50:04;;;;;;;1.30;0.90;;;;;;;10.29;100.00;98657.59;5034259;28;20193;-72
2023/01/06 01:52:33;;;;;;;2.20;1.03;;;;;;;10.23;100.00;98653.88;5033926;28;20229;-72
2023/01/06 01:55:01;;;;;;;0.70;0.70;;;;;;;10.16;100.00;98657.56;5034108;28;20252;-72
2023/01/06 01:57:34;;;;;;;0.73;0.70;;;;;;;10.11;100.00;98660.81;5033703;28;20222;-72
2023/01/06 02:00:01;;;;;;;0.80;0.63;;;;;;;10.15;100.00;98656.75;5033367;28;20198;-72
2023/01/06 02:02:31;;;;;;;0.70;0.70;;;;;;;10.11;100.00;98652.03;5033634;28;20732;-72
2023/01/06 02:04:57;;;;;;;1.00;0.80;;;;;;;10.14;100.00;98654.28;5032489;28;20597;-72
2023/01/06 02:07:26;;;;;;;1.37;0.70;;;;;;;10.09;100.00;98651.44;5033931;28;20212;-72
2023/01/06 02:10:05;;;;;;;0.80;0.80;;;;;;;10.07;100.00;98653.44;5033888;28;20206;-72
2023/01/06 02:12:31;;;;;;;0.80;0.70;;;;;;;10.02;100.00;98650.53;5033435;28;20572;-72
2023/01/06 02:14:58;;;;;;;0.73;0.73;;;;;;;9.98;100.00;98651.97;5033787;28;20205;-72
2023/01/06 02:17:48;;;;;;;1.57;0.80;;;;;;;9.95;100.00;98652.34;5033465;28;20665;-72
2023/01/06 02:20:23;;;;;;;2.50;0.80;;;;;;;9.93;100.00;98649.94;5033817;28;20190;-72
2023/01/06 02:23:11;;;;;;;1.87;0.80;;;;;;;9.88;100.00;98644.41;5033300;28;20233;-72
2023/01/06 02:25:46;;;;;;;0.70;0.70;;;;;;;9.82;100.00;98644.38;5033398;28;20191;-72
2023/01/06 02:28:24;;;;;;;1.10;0.97;;;;;;;9.81;100.00;98642.72;5034456;28;20209;-72
2023/01/06 02:31:18;;;;;;;1.47;0.80;;;;;;;9.80;100.00;98644.56;5033872;28;20190;-72
2023/01/06 02:33:47;;;;;;;1.20;0.70;;;;;;;9.78;100.00;98629.84;5032536;28;20224;-72
2023/01/06 02:36:27;;;;;;;2.73;1.03;;;;;;;9.65;100.00;98630.59;5033493;28;20206;-72
2023/01/06 02:39:23;;;;;;;1.27;1.10;;;;;;;9.67;100.00;98630.41;5033595;28;20196;-72
2023/01/06 02:42:09;;;;;;;1.27;1.13;;;;;;;9.63;100.00;98637.13;5032289;28;20232;-72
2023/01/06 02:44:50;;;;;;;2.70;1.30;;;;;;;9.64;100.00;98636.94;5033565;28;20276;-72
2023/01/06 02:47:32;;;;;;;1.70;1.30;;;;;;;9.65;100.00;98627.94;5032228;28;20308;-72
2023/01/06 02:50:18;;;;;;;2.10;1.47;;;;;;;9.64;100.00;98626.31;5033445;28;20269;-72
2023/01/06 02:53:10;;;;;;;1.87;1.60;;;;;;;9.67;100.00;98625.09;5032154;28;20250;-72
2023/01/06 02:55:44;;;;;;;1.63;1.30;;;;;;;9.66;100.00;98631.44;5031974;28;20684;-72
2023/01/06 02:58:34;;;;;;;1.63;1.03;;;;;;;9.75;100.00;98640.88;5032178;28;20185;-72
2023/01/06 03:01:33;;;;;;;1.50;1.10;;;;;;;9.64;100.00;98630.84;5033260;28;20229;-72
2023/01/06 03:04:03;;;;;;;0.80;0.80;;;;;;;9.99;100.00;98637.66;5024261;28;20202;-72
2023/01/06 03:06:31;;;;;;;0.80;0.80;;;;;;;10.02;100.00;98638.09;5033219;28;20213;-72
2023/01/06 03:08:59;;;;;;;1.23;0.73;;;;;;;10.06;100.00;98630.56;5032872;28;20216;-72
2023/01/06 03:11:28;;;;;;;1.27;1.00;;;;;;;10.13;100.00;98620.75;5035643;28;20226;-72
2023/01/06 03:14:03;;;;;;;2.60;0.90;;;;;;;10.16;100.00;98620.34;5037019;28;20230;-72
2023/01/06 03:16:29;;;;;;;0.80;0.80;;;;;;;10.11;100.00;98622.81;5036791;28;20185;-72
2023/01/06 03:18:57;;;;;;;1.17;0.70;;;;;;;10.05;100.00;98623.63;5037058;28;20206;-72
2023/01/06 03:21:30;;;;;;;1.23;0.80;;;;;;;10.01;100.00;98625.00;5036709;28;20244;-72
2023/01/06 03:23:57;;;;;;;1.50;0.80;;;;;;;9.98;100.00;98620.91;5037009;28;20194;-72
2023/01/06 03:26:24;;;;;;;0.80;0.80;;;;;;;9.97;100.00;98616.63;5036872;28;20248;-72
2023/01/06 03:28:50;;;;;;;2.10;0.97;;;;;;;9.99;100.00;98616.41;5036762;28;20209;-72
2023/01/06 03:31:32;;;;;;;0.90;0.90;;;;;;;9.94;100.00;98611.72;5036657;28;20233;-72
2023/01/06 03:34:22;;;;;;;0.80;0.80;;;;;;;9.98;100.00;98617.44;5035463;28;20213;-72
2023/01/06 03:37:01;;;;;;;1.33;0.90;;;;;;;9.93;100.00;98609.25;5035444;28;20194;-72
2023/01/06 03:39:36;;;;;;;0.87;0.80;;;;;;;9.84;100.00;98610.47;5036279;28;20201;-72
2023/01/06 03:45:11;;;;;;;0.80;0.80;;;;;;;9.58;100.00;98618.34;5022374;28;20165;-72
2023/01/06 03:47:46;;;;;;;0.93;0.87;;;;;;;9.54;100.00;98620.56;5036550;28;20192;-72
2023/01/06 03:50:21;;;;;;;1.87;1.37;;;;;;;9.49;100.00;98611.56;5036735;28;20564;-72
2023/01/06 03:52:58;;;;;;;3.07;1.20;;;;;;;9.47;100.00;98614.44;5036142;28;20708;-72
2023/01/06 03:55:30;;;;;;;2.00;1.30;;;;;;;9.49;100.00;98616.88;5036425;28;20198;-72
2023/01/06 03:57:59;;;;;;;3.40;1.67;;;;;;;9.40;100.00;98616.22;5034863;28;20645;-72
2023/01/06 04:00:32;;;;;;;2.20;1.70;;;;;;;9.32;100.00;98626.22;5036196;28;20312;-72
2023/01/06 04:02:59;;;;;;;1.67;1.40;;;;;;;9.30;100.00;98625.56;5036254;28;20232;-72
2023/01/06 04:05:27;;;;;;;1.10;1.00;;;;;;;9.37;100.00;98619.28;5036207;28;20201;-72
2023/01/06 04:07:54;;;;;;;1.10;0.90;;;;;;;9.39;100.00;98621.72;5036151;28;20210;-72
2023/01/06 04:10:22;;;;;;;1.47;1.10;;;;;;;9.60;100.00;98613.66;5036026;28;20205;-72
2023/01/06 04:12:47;;;;;;;1.03;0.90;;;;;;;9.60;100.00;98605.69;5035599;28;20716;-72
2023/01/06 04:15:20;;;;;;;1.37;0.90;;;;;;;9.61;100.00;98615.28;5035582;28;20228;-72
2023/01/06 04:17:47;;;;;;;0.70;0.70;;;;;;;9.46;100.00;98611.97;5036003;28;20296;-72
2023/01/06 04:20:17;;;;;;;1.63;0.90;;;;;;;9.31;100.00;98613.94;5035634;28;20545;-72
2023/01/06 04:22:44;;;;;;;0.80;0.80;;;;;;;9.27;100.00;98605.56;5034471;28;20237;-72
2023/01/06 04:25:11;;;;;;;1.07;0.70;;;;;;;9.22;100.00;98607.16;5035705;28;20209;-72
2023/01/06 04:27:37;;;;;;;1.07;0.70;;;;;;;9.54;100.00;98595.84;5035702;28;20216;-72
2023/01/06 04:30:05;;;;;;;0.80;0.70;;;;;;;9.51;100.00;98607.69;5035609;28;20206;-71
2023/01/06 04:32:31;;;;;;;0.80;0.53;;;;;;;9.52;100.00;98603.22;5035479;28;20327;-72
2023/01/06 04:34:58;;;;;;;1.50;0.70;;;;;;;9.44;100.00;98598.91;5035402;28;20241;-72
2023/01/06 04:37:24;;;;;;;1.73;0.87;;;;;;;9.34;100.00;98594.97;5035044;28;20210;-72
2023/01/06 04:39:51;;;;;;;1.00;0.70;;;;;;;9.29;100.00;98600.88;5035036;28;20669;-72
2023/01/06 04:42:17;;;;;;;0.90;0.90;;;;;;;9.29;100.00;98608.03;5035277;28;20260;-72
2023/01/06 04:44:43;;;;;;;1.67;1.00;;;;;;;9.42;100.00;98616.84;5035165;28;20202;-72
2023/01/06 04:47:11;;;;;;;1.13;0.80;;;;;;;9.34;100.00;98602.94;5035271;28;20293;-72
2023/01/06 04:49:37;;;;;;;1.80;0.90;;;;;;;9.36;100.00;98601.72;5035290;28;20217;-71
2023/01/06 04:52:05;;;;;;;0.97;0.97;;;;;;;9.34;100.00;98600.28;5035184;28;20588;-72
2023/01/06 04:54:32;;;;;;;1.33;1.00;;;;;;;9.38;100.00;98594.41;5035103;28;20226;-72
2023/01/06 04:56:58;;;;;;;3.30;1.20;;;;;;;9.38;100.00;98601.53;5035130;28;20211;-72
2023/01/06 04:59:25;;;;;;;2.80;1.30;;;;;;;9.36;100.00;98593.75;5035217;28;20214;-72
2023/01/06 05:01:51;;;;;;;3.17;1.10;;;;;;;9.40;100.00;98597.66;5034642;28;20236;-72
2023/01/06 05:04:18;;;;;;;1.50;1.07;;;;;;;9.32;100.00;98592.50;5035078;28;20309;-72
2023/01/06 05:06:45;;;;;;;1.20;0.90;;;;;;;9.27;100.00;98589.63;5034917;28;20228;-72
2023/01/06 05:09:11;;;;;;;1.73;1.10;;;;;;;9.28;100.00;98585.97;5034813;28;20212;-72
2023/01/06 05:11:37;;;;;;;1.87;1.00;;;;;;;9.27;100.00;98580.84;5034871;28;20226;-72
2023/01/06 05:14:04;;;;;;;1.10;1.00;;;;;;;9.22;100.00;98584.09;5034626;28;20222;-72
2023/01/06 05:16:33;;;;;;;1.37;0.90;;;;;;;9.21;100.00;98587.78;5034453;28;20214;-72
2023/01/06 05:19:01;;;;;;;0.87;0.87;;;;;;;9.22;100.00;98583.28;5034650;28;20210;-72
2023/01/06 05:21:29;;;;;;;1.20;1.00;;;;;;;9.22;100.00;98573.50;5034198;28;20739;-72
2023/01/06 05:23:55;;;;;;;1.03;1.00;;;;;;;9.24;100.00;98584.72;5034333;28;20206;-72
2023/01/06 05:26:24;;;;;;;1.53;1.23;;;;;;;9.27;100.00;98583.50;5034608;28;20213;-72
2023/01/06 05:28:51;;;;;;;3.17;1.30;;;;;;;9.17;100.00;98588.34;5034185;28;20205;-72
2023/01/06 05:31:17;;;;;;;1.80;1.10;;;;;;;9.22;100.00;98585.94;5034421;28;20232;-72
2023/01/06 05:33:44;;;;;;;1.93;0.97;;;;;;;9.24;100.00;98595.31;5034359;28;20225;-72
2023/01/06 05:36:12;;;;;;;1.00;1.00;;;;;;;9.22;100.00;98593.88;5034475;28;20202;-72
2023/01/06 05:38:39;;;;;;;1.83;1.40;;;;;;;9.23;100.00;98579.63;5033787;28;20214;-72
2023/01/06 05:41:06;;;;;;;2.40;1.40;;;;;;;9.27;100.00;98586.16;5034273;28;20229;-72
2023/01/06 05:43:34;;;;;;;3.20;1.70;;;;;;;9.25;100.00;98582.91;5034231;28;20205;-72
2023/01/06 05:46:06;;;;;;;4.03;1.90;;;;;;;9.25;100.00;98577.59;5034007;28;20202;-72
2023/01/06 05:48:33;;;;;;;2.30;1.90;;;;;;;9.21;100.00;98585.13;5033910;28;20186;-72
2023/01/06 05:51:03;;;;;;;3.13;2.00;;;;;;;9.20;100.00;98585.31;5033996;28;20233;-72
2023/01/06 05:53:34;;;;;;;3.13;2.30;;;;;;;9.20;100.00;98580.84;5033635;28;20210;-72
2023/01/06 05:56:05;;;;;;;2.20;2.00;;;;;;;9.22;100.00;98575.31;5034082;28;20209;-72
2023/01/06 05:58:32;;;;;;;4.53;2.00;;;;;;;9.16;100.00;98576.13;5034166;28;20193;-72
2023/01/06 06:01:03;;;;;;;3.07;2.17;;;;;;;9.18;100.00;98579.38;5033691;28;20233;-72
2023/01/06 06:03:31;;;;;;;3.13;2.20;;;;;;;9.16;100.00;98576.94;5033692;28;20651;-72
2023/01/06 06:06:06;;;;;;;2.23;2.00;;;;;;;9.14;100.00;98583.47;5033626;28;20672;-72
2023/01/06 06:08:33;;;;;;;2.80;2.07;;;;;;;9.13;100.00;98576.50;5034356;28;20194;-72
2023/01/06 06:11:03;;;;;;;2.37;2.03;;;;;;;9.15;100.00;98582.44;5033587;28;20230;-72
2023/01/06 06:13:30;;;;;;;1.93;1.73;;;;;;;9.14;100.00;98580.81;5033530;28;20210;-72
2023/01/06 06:16:08;;;;;;;2.50;1.83;;;;;;;9.13;100.00;98584.47;5033297;28;20683;-72
2023/01/06 06:18:41;;;;;;;2.67;2.10;;;;;;;9.17;100.00;98583.06;5033335;28;20771;-72
2023/01/06 06:21:08;;;;;;;2.57;2.20;;;;;;;9.13;100.00;98585.28;5033603;28;20226;-72
2023/01/06 06:23:35;;;;;;;3.00;2.23;;;;;;;9.17;100.00;98577.75;5033543;28;20197;-72
2023/01/06 06:26:02;;;;;;;2.10;1.90;;;;;;;9.07;100.00;98582.59;5033613;28;20202;-72
2023/01/06 06:28:33;;;;;;;2.23;2.10;;;;;;;9.09;100.00;98591.19;5033681;28;20206;-72
2023/01/06 06:31:14;;;;;;;3.73;2.47;;;;;;;9.09;100.00;98591.19;5033525;28;20226;-72
2023/01/06 06:33:41;;;;;;;2.40;2.20;;;;;;;9.13;100.00;98592.41;5033532;28;20190;-72
2023/01/06 06:36:10;;;;;;;2.73;2.40;;;;;;;9.08;100.00;98587.72;5033090;28;20221;-72
2023/01/06 06:38:37;;;;;;;3.97;2.20;;;;;;;9.10;100.00;98572.41;5033420;28;20203;-72
2023/01/06 06:41:04;;;;;;;2.97;2.50;;;;;;;9.15;100.00;98585.91;5033213;28;20230;-72
2023/01/06 06:43:31;;;;;;;3.87;1.73;;;;;;;9.19;100.00;98583.69;5032974;28;20212;-72
2023/01/06 06:45:57;;;;;;;2.40;2.20;;;;;;;9.16;100.00;98576.94;5037001;28;20205;-72
2023/01/06 06:48:24;;;;;;;2.80;2.00;;;;;;;9.21;100.00;98589.59;5039884;28;20300;-72
2023/01/06 06:51:11;;;;;;;2.53;2.10;;;;;;;9.17;100.00;98591.00;5039864;28;20208;-72
2023/01/06 06:53:38;;;;;;;2.07;1.87;;;;;;;9.21;100.00;98586.97;5039830;28;20190;-72
2023/01/06 06:56:06;;;;;;;2.73;2.07;;;;;;;9.07;100.00;98580.78;5039856;28;20229;-72
2023/01/06 06:58:33;;;;;;;2.20;2.00;;;;;;;9.09;100.00;98592.00;5039610;28;20202;-72
2023/01/06 07:01:03;;;;;;;2.00;1.80;;;;;;;9.16;100.00;98592.88;5039872;28;20221;-72
2023/01/06 07:03:30;;;;;;;2.17;1.60;;;;;;;9.11;100.00;98591.81;5039865;28;20201;-72
2023/01/06 07:05:58;;;;;;;2.57;1.33;;;;;;;9.33;100.00;98590.69;5039547;28;20260;-72
2023/01/06 07:08:24;;;;;;;1.10;0.73;;;;;;;9.76;100.00;98581.44;5039527;28;20668;-72
2023/01/06 07:10:51;;;;;;;0.70;0.70;;;;;;;9.78;100.00;98580.19;5039521;28;20209;-71
2023/01/06 07:13:17;;;;;;;0.83;0.70;;;;;;;9.89;100.00;98589.41;5039654;28;20206;-72
2023/01/06 07:15:44;;;;;;;0.80;0.80;;;;;;;9.88;100.00;98607.22;5039679;28;20236;-72
2023/01/06 07:18:10;;;;;;;0.77;0.70;;;;;;;9.89;100.00;98621.28;5039711;28;20205;-72
2023/01/06 07:20:38;;;;;;;1.67;1.00;;;;;;;10.08;100.00;98631.16;5039704;28;20659;-72
2023/01/06 07:23:05;;;;;;;4.50;1.43;;;;;;;10.02;100.00;98630.13;5039308;28;20221;-72
2023/01/06 07:25:31;;;;;;;1.47;1.37;;;;;;;10.04;100.00;98635.22;5039413;28;20213;-72
2023/01/06 07:28:04;;;;;;;2.03;1.53;;;;;;;9.87;100.00;98637.41;5039466;28;20209;-72
2023/01/06 07:30:31;;;;;;;1.60;1.50;;;;;;;10.02;100.00;98643.41;5039734;28;20190;-72
2023/01/06 07:32:59;;;;;;;1.40;1.30;;;;;;;9.77;100.00;98652.94;5039537;28;20225;-71
2023/01/06 07:35:26;;;;;;;1.20;1.10;;;;;;;9.74;100.00;98653.31;5039512;28;20229;-72
2023/01/06 07:37:53;;;;;;;1.43;1.30;;;;;;;9.86;100.00;98654.38;5039486;28;20202;-72
2023/01/06 07:40:19;;;;;;;1.63;1.30;;;;;;;9.77;100.00;98650.25;5039496;28;20201;-72
2023/01/06 07:42:46;;;;;;;1.40;1.30;;;;;;;9.70;100.00;98653.91;5038938;28;20229;-72
2023/01/06 07:45:13;;;;;;;1.20;1.20;;;;;;;9.57;100.00;98657.34;5039029;28;20296;-72
2023/01/06 07:47:39;;;;;;;1.33;1.23;;;;;;;9.54;100.00;98660.38;5039417;28;20202;-72
2023/01/06 07:50:06;;;;;;;1.40;1.20;;;;;;;9.58;100.00;98660.81;5039427;28;20212;-72
2023/01/06 07:52:33;;;;;;;1.83;1.30;;;;;;;9.64;100.00;98666.16;5039046;28;20241;-72
2023/01/06 07:54:59;;;;;;;3.57;1.43;;;;;;;9.53;100.00;98665.88;5039240;28;20226;-72
2023/01/06 07:57:27;;;;;;;1.50;1.40;;;;;;;9.44;100.00;98670.56;5036345;28;20206;-71
2023/01/06 07:59:53;;;;;;;2.30;1.50;;;;;;;9.47;100.00;98664.03;5036894;28;20534;-71
2023/01/06 08:02:20;;;;;;;1.73;1.60;;;;;;;9.44;100.00;98667.91;5036421;28;20266;-72
2023/01/06 08:04:46;;;;;;;1.83;1.57;;;;;;;9.58;100.00;98677.56;5036468;28;20206;-71
2023/01/06 08:07:14;;;;;;;2.03;1.37;;;;;;;9.45;100.00;98671.34;5036860;28;20572;-71
2023/01/06 08:09:41;;;;;;;1.77;1.50;;;;;;;9.43;100.00;98676.88;5035794;28;20202;-71
2023/01/06 08:12:07;;;;;;;1.27;1.27;;;;;;;9.37;100.00;98671.53;5035724;28;20240;-71
2023/01/06 08:14:34;;;;;;;1.53;1.43;;;;;;;9.30;100.00;98675.97;5035856;28;20221;-71
2023/01/06 08:17:00;;;;;;;1.73;1.50;;;;;;;9.30;100.00;98676.81;5035911;28;20206;-71
2023/01/06 08:19:26;;;;;;;1.53;1.23;;;;;;;9.18;100.00;98673.06;5036495;28;20205;-71
2023/01/06 08:21:53;;;;;;;1.20;1.10;;;;;;;9.17;100.00;98682.03;5035707;28;20240;-71
2023/01/06 08:24:19;;;;;;;1.50;1.40;;;;;;;9.11;100.00;98682.81;5035414;28;20213;-71
2023/01/06 08:26:46;;;;;;;3.07;1.20;;;;;;;9.18;100.00;98682.84;5035763;28;20206;-71
2023/01/06 08:29:12;;;;;;;1.37;1.27;;;;;;;9.12;100.00;98689.75;5035674;28;20210;-71
2023/01/06 08:31:38;;;;;;;0.87;0.87;;;;;;;9.08;100.00;98687.69;5035496;28;20225;-71
2023/01/06 08:34:05;;;;;;;0.93;0.83;;;;;;;9.07;100.00;98696.66;5035340;28;20231;-71
2023/01/06 08:36:31;;;;;;;1.43;0.90;;;;;;;9.09;100.00;98699.94;5034991;28;20226;-71
2023/01/06 08:38:58;;;;;;;0.70;0.70;;;;;;;9.02;100.00;98702.56;5034898;28;20212;-71
2023/01/06 08:41:24;;;;;;;1.40;0.70;;;;;;;8.95;100.00;98699.03;5035152;28;20230;-71
2023/01/06 08:43:50;;;;;;;0.50;0.50;;;;;;;8.96;100.00;98690.03;5034924;28;20292;-71
2023/01/06 08:46:19;;;;;;;1.00;0.80;;;;;;;8.94;100.00;98692.09;5035156;28;20206;-71
2023/01/06 08:48:47;;;;;;;0.97;0.77;;;;;;;9.00;100.00;98690.50;5035315;28;20206;-71
2023/01/06 08:51:19;;;;;;;1.00;0.83;;;;;;;8.99;100.00;98694.97;5035225;28;20317;-71
2023/01/06 08:53:47;;;;;;;1.80;0.90;;;;;;;9.03;100.00;98700.69;5035181;28;20194;-71
2023/01/06 08:56:33;;;;;;;0.70;0.70;;;;;;;9.07;100.00;98701.97;5035053;28;20230;-71
2023/01/06 08:59:02;;;;;;;1.53;0.70;;;;;;;9.05;100.00;98704.78;5035370;28;20201;-71
2023/01/06 09:01:34;;;;;;;0.90;0.90;;;;;;;9.04;100.00;98702.34;5034974;28;20304;-71
2023/01/06 09:04:04;;;;;;;1.73;0.80;;;;;;;9.11;100.00;98697.91;5034987;28;20202;-71
2023/01/06 09:06:30;;;;;;;1.20;1.10;;;;;;;9.14;100.00;98705.50;5034924;28;20293;-71
2023/01/06 09:08:58;;;;;;;0.97;0.80;;;;;;;9.20;100.00;98710.00;5034603;28;20212;-72
2023/01/06 09:11:25;;;;;;;1.20;1.00;;;;;;;9.27;100.00;98710.84;5034733;28;20232;-72
2023/01/06 09:13:51;;;;;;;3.17;1.00;;;;;;;9.27;100.00;98713.50;5034744;28;20212;-72
2023/01/06 09:16:18;;;;;;;2.97;0.93;;;;;;;9.23;100.00;98714.94;5034610;28;20226;-71
2023/01/06 09:18:48;;;;;;;0.77;0.73;;;;;;;9.30;100.00;98713.97;5034619;28;20202;-71
2023/01/06 09:21:19;;;;;;;1.40;0.87;;;;;;;9.43;100.00;98713.22;5034106;28;20249;-71
2023/01/06 09:23:45;;;;;;;1.23;0.80;;;;;;;9.47;100.00;98717.94;5034431;28;20217;-71
2023/01/06 09:26:12;;;;;;;1.20;0.70;;;;;;;9.55;100.00;98716.97;5034463;28;20204;-71
2023/01/06 09:28:39;;;;;;;1.53;0.77;;;;;;;9.67;100.00;98720.69;5034412;28;20571;-71
2023/01/06 09:31:06;;;;;;;0.50;0.50;;;;;;;9.72;100.00;98728.88;5034134;28;20727;-71
2023/01/06 09:33:33;;;;;;;0.93;0.53;;;;;;;9.70;100.00;98722.94;5034565;28;20217;-71
2023/01/06 09:35:59;;;;;;;0.40;0.40;;;;;;;9.69;100.00;98723.97;5034446;28;20583;-71
2023/01/06 09:38:27;;;;;;;0.60;0.60;;;;;;;9.72;100.00;98729.69;5033949;28;20622;-71
2023/01/06 09:41:17;;;;;;;1.60;0.60;;;;;;;9.79;100.00;98732.41;5033478;28;20206;-71
2023/01/06 09:43:48;;;;;;;0.93;0.70;;;;;;;9.82;100.00;98738.13;5033072;28;20190;-71
2023/01/06 09:46:19;;;;;;;0.60;0.60;;;;;;;9.98;100.00;98736.97;5034544;28;20194;-72
2023/01/06 09:49:07;;;;;;;1.20;0.50;;;;;;;10.04;100.00;98733.50;5032903;28;20198;-72
2023/01/06 09:51:36;;;;;;;0.53;0.50;;;;;;;10.06;100.00;98740.31;5033650;28;20226;-71
2023/01/06 09:54:12;;;;;;;1.20;0.50;;;;;;;10.24;100.00;98737.94;5034025;28;20213;-72
2023/01/06 09:56:42;;;;;;;0.93;0.40;;;;;;;10.42;100.00;98732.81;5033917;28;20600;-72
2023/01/06 09:59:19;;;;;;;0.80;0.50;;;;;;;10.53;100.00;98742.06;5033837;28;20205;-72
2023/01/06 10:01:48;;;;;;;0.60;0.60;;;;;;;10.55;100.00;98743.50;5032463;28;20229;-72
2023/01/06 10:04:22;;;;;;;0.60;0.60;;;;;;;10.71;100.00;98735.13;5033868;28;20209;-72
2023/01/06 10:07:30;;;;;;;1.30;0.80;;;;;;;10.51;100.00;98730.81;5033862;28;20193;-72
2023/01/06 10:10:16;;;;;;;0.90;0.80;;;;;;;10.36;100.00;98732.84;5019652;28;20665;-73
2023/01/06 10:13:15;;;;;;;0.77;0.60;;;;;;;10.42;100.00;98722.19;5033208;28;20234;-73
2023/01/06 10:16:01;;;;;;;0.60;0.60;;;;;;;10.53;100.00;98718.13;5025742;28;20234;-73
2023/01/06 10:18:46;;;;;;;0.67;0.67;;;;;;;10.51;100.00;98717.53;5033725;28;20194;-72
2023/01/06 10:21:23;;;;;;;1.07;0.70;;;;;;;10.56;100.00;98713.25;5032699;28;20241;-72
2023/01/06 10:23:59;;;;;;;0.70;0.50;;;;;;;10.69;100.00;98699.94;5033953;28;20248;-73
2023/01/06 10:26:37;;;;;;;0.50;0.50;;;;;;;10.88;100.00;98693.00;5033420;28;20204;-73
2023/01/06 10:29:14;;;;;;;1.00;0.60;;;;;;;11.05;100.00;98686.25;5033480;28;20190;-72
2023/01/06 10:31:44;;;;;;;0.87;0.70;;;;;;;11.16;100.00;98682.13;5032272;28;20237;-73
2023/01/06 10:34:20;;;;;;;1.07;0.57;;;;;;;11.36;100.00;98673.09;5032985;28;20568;-73
2023/01/06 10:36:52;;;;;;;0.60;0.60;;;;;;;11.38;100.00;98671.00;5033246;28;20209;-73
2023/01/06 10:39:26;;;;;;;0.60;0.60;;;;;;;11.51;100.00;98670.97;5033262;28;20191;-73
2023/01/06 10:41:52;;;;;;;0.50;0.50;;;;;;;11.59;100.00;98677.91;5033211;28;20225;-73
2023/01/06 10:44:19;;;;;;;0.57;0.50;;;;;;;11.51;100.00;98670.97;5032786;28;20213;-73
2023/01/06 10:46:48;;;;;;;1.70;0.70;;;;;;;11.55;100.00;98664.22;5033125;28;20231;-73
2023/01/06 10:49:18;;;;;;;0.50;0.50;;;;;;;11.52;100.00;98667.28;5033274;28;20212;-73
2023/01/06 10:51:52;;;;;;;0.60;0.60;;;;;;;11.52;100.00;98667.28;5033238;28;20245;-73
2023/01/06 10:54:23;;;;;;;0.93;0.60;;;;;;;11.54;100.00;98664.41;5033758;28;20203;-73
2023/01/06 10:56:55;;;;;;;0.50;0.50;;;;;;;11.44;100.00;98664.84;5032671;28;20638;-73
2023/01/06 10:59:22;;;;;;;0.50;0.50;;;;;;;11.50;100.00;98658.69;5032853;28;20201;-73
2023/01/06 11:01:54;;;;;;;0.50;0.40;;;;;;;11.39;100.00;98656.66;5032818;28;20233;-73
2023/01/06 11:04:21;;;;;;;0.40;0.40;;;;;;;11.43;100.00;98657.88;5032952;28;20194;-73
2023/01/06 11:06:54;;;;;;;0.40;0.40;;;;;;;11.57;100.00;98664.81;5032835;28;20237;-73
2023/01/06 11:09:38;;;;;;;0.40;0.40;;;;;;;11.54;100.00;98659.91;5033023;28;20192;-73
2023/01/06 11:12:19;;;;;;;0.30;0.30;;;;;;;11.45;99.61;98663.84;5033137;28;20221;-74
2023/01/06 11:15:02;;;;;;;0.30;0.30;;;;;;;11.55;97.98;98666.88;5031794;28;20196;-74
2023/01/06 11:17:29;;;;;;;0.30;0.30;;;;;;;11.45;100.00;98663.84;5032050;28;20199;-74
2023/01/06 11:20:09;;;;;;;0.30;0.30;;;;;;;11.52;99.24;98653.97;5032902;28;20205;-73
2023/01/06 11:22:41;;;;;;;0.30;0.30;;;;;;;11.53;97.01;98658.25;5032312;28;20327;-73
2023/01/06 11:25:19;;;;;;;0.27;0.27;;;;;;;11.50;97.82;98653.38;5032613;28;20209;-72
2023/01/06 11:28:14;;;;;;;0.40;0.40;;;;;;;11.35;97.88;98652.78;5032817;28;20209;-73
2023/01/06 11:30:51;;;;;;;0.30;0.30;;;;;;;11.44;98.69;98646.22;5028452;28;20598;-73
2023/01/06 11:33:23;;;;;;;0.47;0.30;;;;;;;11.50;97.89;98648.06;5035534;28;20197;-74
2023/01/06 11:35:50;;;;;;;0.37;0.37;;;;;;;11.56;98.63;98651.69;5036568;28;20189;-74
2023/01/06 11:38:18;;;;;;;0.40;0.30;;;;;;;11.55;99.45;98650.06;5036483;28;20209;-72
2023/01/06 11:40:47;;;;;;;0.40;0.40;;;;;;;11.53;98.45;98639.63;5036313;28;20308;-73
2023/01/06 11:43:19;;;;;;;0.47;0.40;;;;;;;11.72;97.75;98646.78;5035921;28;20540;-73
2023/01/06 11:45:49;;;;;;;1.10;0.40;;;;;;;11.58;100.00;98642.47;5035803;28;20673;-72
2023/01/06 11:48:22;;;;;;;1.50;0.50;;;;;;;11.51;100.00;98636.38;5036306;28;20197;-72
2023/01/06 11:50:54;;;;;;;0.70;0.70;;;;;;;11.50;100.00;98648.06;5036337;28;20209;-72